sensor_id;sensor_type;location;lat;lon;timestamp;pressure;altitude;pressure_sealevel;temperature;humidity
12801;BME280;6464;42.494;27.470;2022-08-19T04:02:02;100506.06;;;22.10;100.00
12801;BME280;6464;42.494;27.470;2022-08-19T04:04:37;100545.84;;;22.43;100.00
12801;BME280;6464;42.494;27.470;2022-08-19T04:07:16;100517.69;;;22.23;100.00
12801;BME280;6464;42.494;27.470;2022-08-19T04:17:36;100660.00;;;23.01;100.00
12801;BME280;6464;42.494;27.470;2022-08-19T04:23:33;100654.84;;;23.11;100.00
12801;BME280;6464;42.494;27.470;2022-08-19T04:29:10;100603.56;;;22.89;100.00
12801;BME280;6464;42.494;27.470;2022-08-19T04:31:38;100674.63;;;23.36;100.00
12801;BME280;6464;42.494;27.470;2022-08-19T04:37:32;100666.28;;;23.39;100.00
12801;BME280;6464;42.494;27.470;2022-08-19T04:39:59;100622.13;;;23.17;100.00
12801;BME280;6464;42.494;27.470;2022-08-19T04:42:44;100664.91;;;23.46;100.00
12801;BME280;6464;42.494;27.470;2022-08-19T04:45:13;100720.25;;;23.87;100.00
12801;BME280;6464;42.494;27.470;2022-08-19T04:47:41;100739.63;;;23.92;100.00
12801;BME280;6464;42.494;27.470;2022-08-19T04:50:10;100718.91;;;23.92;100.00
12801;BME280;6464;42.494;27.470;2022-08-19T04:52:39;100732.56;;;24.02;100.00
12801;BME280;6464;42.494;27.470;2022-08-19T04:55:08;100780.69;;;24.19;100.00
12801;BME280;6464;42.494;27.470;2022-08-19T04:57:36;100754.06;;;24.15;100.00
12801;BME280;6464;42.494;27.470;2022-08-19T05:00:06;100783.84;;;24.13;100.00
12801;BME280;6464;42.494;27.470;2022-08-19T05:02:33;100796.03;;;24.30;100.00
12801;BME280;6464;42.494;27.470;2022-08-19T05:05:00;100782.50;;;24.19;100.00
12801;BME280;6464;42.494;27.470;2022-08-19T05:07:27;100844.09;;;24.49;100.00
12801;BME280;6464;42.494;27.470;2022-08-19T05:10:05;100778.09;;;23.94;100.00
12801;BME280;6464;42.494;27.470;2022-08-19T05:12:33;100842.38;;;24.48;100.00
12801;BME280;6464;42.494;27.470;2022-08-19T05:15:07;100808.66;;;24.29;100.00
12801;BME280;6464;42.494;27.470;2022-08-19T05:17:35;100923.16;;;24.97;100.00
12801;BME280;6464;42.494;27.470;2022-08-19T05:20:03;100925.28;;;24.81;100.00
12801;BME280;6464;42.494;27.470;2022-08-19T05:22:48;100863.47;;;24.54;100.00
12801;BME280;6464;42.494;27.470;2022-08-19T05:25:18;100908.84;;;24.84;100.00
12801;BME280;6464;42.494;27.470;2022-08-19T05:27:46;100960.94;;;25.21;100.00
12801;BME280;6464;42.494;27.470;2022-08-19T05:30:14;100906.91;;;24.86;100.00
12801;BME280;6464;42.494;27.470;2022-08-19T05:32:42;100896.03;;;24.75;100.00
12801;BME280;6464;42.494;27.470;2022-08-19T05:35:14;100975.41;;;25.20;100.00
12801;BME280;6464;42.494;27.470;2022-08-19T05:37:41;100974.44;;;25.21;100.00
12801;BME280;6464;42.494;27.470;2022-08-19T05:40:09;101016.56;;;25.59;100.00
12801;BME280;6464;42.494;27.470;2022-08-19T05:42:38;100939.56;;;25.18;100.00
12801;BME280;6464;42.494;27.470;2022-08-19T05:45:07;101032.50;;;25.62;100.00
12801;BME280;6464;42.494;27.470;2022-08-19T05:47:34;101045.75;;;25.78;100.00
12801;BME280;6464;42.494;27.470;2022-08-19T05:50:02;100959.66;;;25.14;100.00
12801;BME280;6464;42.494;27.470;2022-08-19T05:52:29;101028.69;;;25.53;100.00
12801;BME280;6464;42.494;27.470;2022-08-19T05:54:56;100956.34;;;25.46;100.00
12801;BME280;6464;42.494;27.470;2022-08-19T05:57:23;101026.50;;;25.94;100.00
12801;BME280;6464;42.494;27.470;2022-08-19T05:59:52;100894.94;;;25.25;100.00
12801;BME280;6464;42.494;27.470;2022-08-19T06:02:19;100978.22;;;25.89;100.00
12801;BME280;6464;42.494;27.470;2022-08-19T06:04:49;101007.22;;;26.09;100.00
12801;BME280;6464;42.494;27.470;2022-08-19T06:07:16;101025.06;;;26.12;100.00
12801;BME280;6464;42.494;27.470;2022-08-19T06:09:43;100968.63;;;25.96;100.00
12801;BME280;6464;42.494;27.470;2022-08-19T06:12:10;100962.13;;;25.99;100.00
12801;BME280;6464;42.494;27.470;2022-08-19T06:14:37;101017.72;;;26.48;100.00
12801;BME280;6464;42.494;27.470;2022-08-19T06:17:08;101019.44;;;26.60;100.00
12801;BME280;6464;42.494;27.470;2022-08-19T06:19:35;100997.44;;;26.64;100.00
12801;BME280;6464;42.494;27.470;2022-08-19T06:22:13;101093.53;;;27.25;100.00
12801;BME280;6464;42.494;27.470;2022-08-19T06:24:47;101117.53;;;27.29;100.00
12801;BME280;6464;42.494;27.470;2022-08-19T06:27:18;101088.38;;;27.22;100.00
12801;BME280;6464;42.494;27.470;2022-08-19T06:29:44;101155.34;;;27.74;100.00
12801;BME280;6464;42.494;27.470;2022-08-19T06:32:14;101160.16;;;27.82;100.00
12801;BME280;6464;42.494;27.470;2022-08-19T06:34:51;101185.56;;;28.02;100.00
12801;BME280;6464;42.494;27.470;2022-08-19T06:37:20;101201.31;;;28.08;100.00
12801;BME280;6464;42.494;27.470;2022-08-19T06:39:48;101137.97;;;27.77;100.00
12801;BME280;6464;42.494;27.470;2022-08-19T06:42:15;101161.94;;;27.92;100.00
12801;BME280;6464;42.494;27.470;2022-08-19T06:44:45;101198.88;;;28.26;100.00
12801;BME280;6464;42.494;27.470;2022-08-19T06:47:19;101141.66;;;28.08;100.00
12801;BME280;6464;42.494;27.470;2022-08-19T06:49:46;101147.75;;;28.21;100.00
12801;BME280;6464;42.494;27.470;2022-08-19T06:52:14;101200.84;;;28.56;100.00
12801;BME280;6464;42.494;27.470;2022-08-19T06:54:41;101198.88;;;28.58;100.00
12801;BME280;6464;42.494;27.470;2022-08-19T06:57:08;101153.66;;;28.47;100.00
12801;BME280;6464;42.494;27.470;2022-08-19T06:59:39;101157.97;;;28.50;100.00
12801;BME280;6464;42.494;27.470;2022-08-19T07:02:06;101156.50;;;28.46;100.00
12801;BME280;6464;42.494;27.470;2022-08-19T07:04:35;101200.25;;;28.73;100.00
12801;BME280;6464;42.494;27.470;2022-08-19T07:07:05;101199.34;;;28.93;100.00
12801;BME280;6464;42.494;27.470;2022-08-19T07:09:34;101220.34;;;29.12;100.00
12801;BME280;6464;42.494;27.470;2022-08-19T07:12:04;101212.63;;;29.17;100.00
12801;BME280;6464;42.494;27.470;2022-08-19T07:14:32;101217.47;;;29.14;100.00
12801;BME280;6464;42.494;27.470;2022-08-19T07:17:04;101217.66;;;29.22;100.00
12801;BME280;6464;42.494;27.470;2022-08-19T07:19:34;101193.88;;;29.14;100.00
12801;BME280;6464;42.494;27.470;2022-08-19T07:22:02;101206.41;;;29.36;100.00
12801;BME280;6464;42.494;27.470;2022-08-19T07:24:30;101203.13;;;29.42;100.00
12801;BME280;6464;42.494;27.470;2022-08-19T07:26:59;101189.88;;;29.59;100.00
12801;BME280;6464;42.494;27.470;2022-08-19T07:29:28;101215.66;;;29.55;100.00
12801;BME280;6464;42.494;27.470;2022-08-19T07:31:56;101195.00;;;29.52;100.00
12801;BME280;6464;42.494;27.470;2022-08-19T07:34:24;101185.81;;;29.43;100.00
12801;BME280;6464;42.494;27.470;2022-08-19T07:36:54;101119.69;;;29.14;100.00
12801;BME280;6464;42.494;27.470;2022-08-19T07:39:23;101206.81;;;29.72;100.00
12801;BME280;6464;42.494;27.470;2022-08-19T07:41:50;101132.03;;;29.37;100.00
12801;BME280;6464;42.494;27.470;2022-08-19T07:44:19;101187.34;;;29.86;100.00
12801;BME280;6464;42.494;27.470;2022-08-19T07:46:50;101191.94;;;29.86;100.00
12801;BME280;6464;42.494;27.470;2022-08-19T07:49:18;101193.97;;;29.93;100.00
12801;BME280;6464;42.494;27.470;2022-08-19T07:51:48;101197.66;;;30.12;100.00
12801;BME280;6464;42.494;27.470;2022-08-19T07:54:18;101211.44;;;30.20;100.00
12801;BME280;6464;42.494;27.470;2022-08-19T07:56:45;101163.63;;;30.08;100.00
12801;BME280;6464;42.494;27.470;2022-08-19T07:59:12;101208.84;;;30.48;100.00
12801;BME280;6464;42.494;27.470;2022-08-19T08:01:39;101201.41;;;30.30;100.00
12801;BME280;6464;42.494;27.470;2022-08-19T08:04:06;101160.91;;;30.17;100.00
12801;BME280;6464;42.494;27.470;2022-08-19T08:06:51;101194.38;;;30.57;100.00
12801;BME280;6464;42.494;27.470;2022-08-19T08:09:39;101218.25;;;30.82;100.00
12801;BME280;6464;42.494;27.470;2022-08-19T08:12:09;101204.97;;;31.07;100.00
12801;BME280;6464;42.494;27.470;2022-08-19T08:14:39;101211.44;;;31.06;100.00
12801;BME280;6464;42.494;27.470;2022-08-19T08:17:08;101214.69;;;31.19;100.00
12801;BME280;6464;42.494;27.470;2022-08-19T08:19:35;101191.75;;;31.12;100.00
12801;BME280;6464;42.494;27.470;2022-08-19T08:22:03;101196.47;;;31.29;100.00
12801;BME280;6464;42.494;27.470;2022-08-19T08:24:32;101213.69;;;31.47;100.00
12801;BME280;6464;42.494;27.470;2022-08-19T08:27:03;101211.59;;;31.41;100.00
12801;BME280;6464;42.494;27.470;2022-08-19T08:29:30;101155.53;;;31.39;100.00
12801;BME280;6464;42.494;27.470;2022-08-19T08:31:58;101205.31;;;31.59;100.00
12801;BME280;6464;42.494;27.470;2022-08-19T08:34:25;101198.63;;;31.71;100.00
12801;BME280;6464;42.494;27.470;2022-08-19T08:36:52;101204.47;;;31.76;100.00
12801;BME280;6464;42.494;27.470;2022-08-19T08:39:20;101201.19;;;31.82;100.00
12801;BME280;6464;42.494;27.470;2022-08-19T08:41:53;101218.56;;;31.71;100.00
12801;BME280;6464;42.494;27.470;2022-08-19T08:44:40;101228.31;;;32.02;100.00
12801;BME280;6464;42.494;27.470;2022-08-19T08:47:14;101203.50;;;31.95;100.00
12801;BME280;6464;42.494;27.470;2022-08-19T08:49:46;101223.00;;;32.00;100.00
12801;BME280;6464;42.494;27.470;2022-08-19T08:52:19;101206.88;;;31.89;100.00
12801;BME280;6464;42.494;27.470;2022-08-19T08:54:51;101213.09;;;31.99;100.00
12801;BME280;6464;42.494;27.470;2022-08-19T08:57:35;101230.94;;;32.29;100.00
12801;BME280;6464;42.494;27.470;2022-08-19T09:00:06;101226.19;;;32.31;100.00
12801;BME280;6464;42.494;27.470;2022-08-19T09:02:36;101202.50;;;32.14;100.00
12801;BME280;6464;42.494;27.470;2022-08-19T09:05:10;101191.28;;;32.17;100.00
12801;BME280;6464;42.494;27.470;2022-08-19T09:07:47;101236.63;;;32.54;100.00
12801;BME280;6464;42.494;27.470;2022-08-19T09:10:25;101234.34;;;32.67;100.00
12801;BME280;6464;42.494;27.470;2022-08-19T09:13:08;101227.97;;;32.58;100.00
12801;BME280;6464;42.494;27.470;2022-08-19T09:15:43;101232.13;;;32.88;100.00
12801;BME280;6464;42.494;27.470;2022-08-19T09:18:11;101240.78;;;32.84;100.00
12801;BME280;6464;42.494;27.470;2022-08-19T09:20:39;101220.50;;;32.68;100.00
12801;BME280;6464;42.494;27.470;2022-08-19T09:23:06;101208.09;;;32.48;100.00
12801;BME280;6464;42.494;27.470;2022-08-19T09:25:33;101212.50;;;32.67;100.00
12801;BME280;6464;42.494;27.470;2022-08-19T09:28:01;101235.91;;;32.69;100.00
12801;BME280;6464;42.494;27.470;2022-08-19T09:30:30;101177.69;;;32.69;100.00
12801;BME280;6464;42.494;27.470;2022-08-19T09:32:59;101209.91;;;33.60;100.00
12801;BME280;6464;42.494;27.470;2022-08-19T09:35:28;101249.19;;;33.50;100.00
12801;BME280;6464;42.494;27.470;2022-08-19T09:37:56;101205.84;;;33.64;100.00
12801;BME280;6464;42.494;27.470;2022-08-19T09:40:24;101226.72;;;33.31;100.00
12801;BME280;6464;42.494;27.470;2022-08-19T09:42:51;101216.38;;;34.66;100.00
12801;BME280;6464;42.494;27.470;2022-08-19T09:45:21;101258.09;;;35.25;100.00
12801;BME280;6464;42.494;27.470;2022-08-19T09:47:48;101243.44;;;35.41;100.00
12801;BME280;6464;42.494;27.470;2022-08-19T09:50:18;101213.00;;;33.57;100.00
12801;BME280;6464;42.494;27.470;2022-08-19T09:52:45;101207.50;;;34.15;100.00
12801;BME280;6464;42.494;27.470;2022-08-19T09:55:13;101144.75;;;32.70;100.00
12801;BME280;6464;42.494;27.470;2022-08-19T09:57:41;101185.63;;;32.80;100.00
12801;BME280;6464;42.494;27.470;2022-08-19T10:00:09;101183.75;;;33.15;100.00
12801;BME280;6464;42.494;27.470;2022-08-19T10:02:36;101173.13;;;32.52;100.00
12801;BME280;6464;42.494;27.470;2022-08-19T10:05:04;101196.69;;;33.05;100.00
12801;BME280;6464;42.494;27.470;2022-08-19T10:07:50;101197.38;;;32.98;100.00
12801;BME280;6464;42.494;27.470;2022-08-19T10:10:17;101189.31;;;32.71;100.00
12801;BME280;6464;42.494;27.470;2022-08-19T10:12:44;101233.53;;;34.60;100.00
12801;BME280;6464;42.494;27.470;2022-08-19T10:15:13;101258.94;;;35.73;100.00
12801;BME280;6464;42.494;27.470;2022-08-19T10:17:40;101242.88;;;34.90;100.00
12801;BME280;6464;42.494;27.470;2022-08-19T10:20:08;101203.88;;;33.06;100.00
12801;BME280;6464;42.494;27.470;2022-08-19T10:22:35;101197.22;;;32.82;100.00
12801;BME280;6464;42.494;27.470;2022-08-19T10:25:06;101200.13;;;32.55;100.00
12801;BME280;6464;42.494;27.470;2022-08-19T10:27:33;101206.94;;;32.51;100.00
12801;BME280;6464;42.494;27.470;2022-08-19T10:30:00;101199.69;;;32.41;100.00
12801;BME280;6464;42.494;27.470;2022-08-19T10:32:27;101202.03;;;32.36;100.00
12801;BME280;6464;42.494;27.470;2022-08-19T10:34:55;101197.28;;;32.20;100.00
12801;BME280;6464;42.494;27.470;2022-08-19T10:37:22;101204.03;;;32.52;100.00
12801;BME280;6464;42.494;27.470;2022-08-19T10:39:49;101201.84;;;32.56;100.00
12801;BME280;6464;42.494;27.470;2022-08-19T10:42:18;101179.91;;;34.74;100.00
12801;BME280;6464;42.494;27.470;2022-08-19T10:44:46;101239.75;;;35.26;100.00
12801;BME280;6464;42.494;27.470;2022-08-19T10:47:13;101249.22;;;35.07;100.00
12801;BME280;6464;42.494;27.470;2022-08-19T10:49:40;101206.63;;;34.72;100.00
12801;BME280;6464;42.494;27.470;2022-08-19T10:52:21;101253.50;;;34.93;100.00
12801;BME280;6464;42.494;27.470;2022-08-19T10:55:00;101241.53;;;34.37;100.00
12801;BME280;6464;42.494;27.470;2022-08-19T10:57:45;101209.03;;;34.50;100.00
12801;BME280;6464;42.494;27.470;2022-08-19T11:00:13;101158.84;;;33.93;100.00
12801;BME280;6464;42.494;27.470;2022-08-19T11:02:40;101174.25;;;33.27;100.00
12801;BME280;6464;42.494;27.470;2022-08-19T11:05:08;101239.66;;;36.73;100.00
12801;BME280;6464;42.494;27.470;2022-08-19T11:07:36;101271.69;;;39.13;100.00
12801;BME280;6464;42.494;27.470;2022-08-19T11:10:05;101318.34;;;40.39;100.00
12801;BME280;6464;42.494;27.470;2022-08-19T11:12:32;101262.22;;;38.73;100.00
12801;BME280;6464;42.494;27.470;2022-08-19T11:15:01;101233.03;;;37.86;100.00
12801;BME280;6464;42.494;27.470;2022-08-19T11:17:28;101265.25;;;39.34;100.00
12801;BME280;6464;42.494;27.470;2022-08-19T11:19:57;101283.88;;;41.21;100.00
12801;BME280;6464;42.494;27.470;2022-08-19T11:22:29;101320.28;;;42.91;100.00
12801;BME280;6464;42.494;27.470;2022-08-19T11:24:56;101325.81;;;43.16;100.00
12801;BME280;6464;42.494;27.470;2022-08-19T11:27:23;101259.78;;;41.28;100.00
12801;BME280;6464;42.494;27.470;2022-08-19T11:29:50;101307.44;;;42.71;100.00
12801;BME280;6464;42.494;27.470;2022-08-19T11:32:19;101303.09;;;42.50;100.00
12801;BME280;6464;42.494;27.470;2022-08-19T11:34:46;101307.53;;;42.83;100.00
12801;BME280;6464;42.494;27.470;2022-08-19T11:37:13;101309.56;;;43.19;100.00
12801;BME280;6464;42.494;27.470;2022-08-19T11:39:41;101322.72;;;44.57;100.00
12801;BME280;6464;42.494;27.470;2022-08-19T11:42:08;101284.47;;;43.07;100.00
12801;BME280;6464;42.494;27.470;2022-08-19T11:44:48;101317.53;;;43.89;100.00
12801;BME280;6464;42.494;27.470;2022-08-19T11:47:16;101312.22;;;43.88;100.00
12801;BME280;6464;42.494;27.470;2022-08-19T11:49:45;101307.78;;;44.28;100.00
12801;BME280;6464;42.494;27.470;2022-08-19T11:52:12;101266.69;;;42.08;100.00
12801;BME280;6464;42.494;27.470;2022-08-19T11:54:39;101298.09;;;42.91;100.00
12801;BME280;6464;42.494;27.470;2022-08-19T11:57:06;101264.00;;;41.95;100.00
12801;BME280;6464;42.494;27.470;2022-08-19T11:59:33;101269.97;;;41.99;100.00
12801;BME280;6464;42.494;27.470;2022-08-19T12:02:00;101258.72;;;41.42;100.00
12801;BME280;6464;42.494;27.470;2022-08-19T12:04:27;101236.41;;;39.91;100.00
12801;BME280;6464;42.494;27.470;2022-08-19T12:06:55;101221.25;;;39.74;100.00
12801;BME280;6464;42.494;27.470;2022-08-19T12:09:22;101241.34;;;40.95;100.00
12801;BME280;6464;42.494;27.470;2022-08-19T12:11:49;101230.53;;;40.47;100.00
12801;BME280;6464;42.494;27.470;2022-08-19T12:14:17;101214.41;;;39.63;100.00
12801;BME280;6464;42.494;27.470;2022-08-19T12:16:45;101169.03;;;38.05;100.00
12801;BME280;6464;42.494;27.470;2022-08-19T12:19:12;101168.72;;;37.58;100.00
12801;BME280;6464;42.494;27.470;2022-08-19T12:21:39;101196.34;;;38.78;100.00
12801;BME280;6464;42.494;27.470;2022-08-19T12:24:08;101214.50;;;39.96;100.00
12801;BME280;6464;42.494;27.470;2022-08-19T12:26:35;101234.16;;;40.74;100.00
12801;BME280;6464;42.494;27.470;2022-08-19T12:29:02;101231.78;;;40.84;100.00
12801;BME280;6464;42.494;27.470;2022-08-19T12:31:36;101221.69;;;39.77;100.00
12801;BME280;6464;42.494;27.470;2022-08-19T12:34:03;101181.91;;;38.48;100.00
12801;BME280;6464;42.494;27.470;2022-08-19T12:36:30;101164.78;;;37.45;100.00
12801;BME280;6464;42.494;27.470;2022-08-19T12:38:58;101186.25;;;38.14;100.00
12801;BME280;6464;42.494;27.470;2022-08-19T12:41:27;101157.72;;;39.13;100.00
12801;BME280;6464;42.494;27.470;2022-08-19T12:43:54;101192.03;;;39.38;100.00
12801;BME280;6464;42.494;27.470;2022-08-19T12:46:21;101174.63;;;37.54;100.00
12801;BME280;6464;42.494;27.470;2022-08-19T12:48:48;101151.91;;;35.96;100.00
12801;BME280;6464;42.494;27.470;2022-08-19T12:51:17;101133.34;;;35.52;100.00
12801;BME280;6464;42.494;27.470;2022-08-19T12:53:45;101026.88;;;34.63;100.00
12801;BME280;6464;42.494;27.470;2022-08-19T12:56:12;101147.09;;;35.75;100.00
12801;BME280;6464;42.494;27.470;2022-08-19T12:58:42;101096.72;;;35.37;100.00
12801;BME280;6464;42.494;27.470;2022-08-19T13:01:11;101130.56;;;35.61;100.00
12801;BME280;6464;42.494;27.470;2022-08-19T13:03:38;101116.47;;;35.33;100.00
12801;BME280;6464;42.494;27.470;2022-08-19T13:06:06;101126.78;;;34.91;100.00
12801;BME280;6464;42.494;27.470;2022-08-19T13:08:33;101143.78;;;35.26;100.00
12801;BME280;6464;42.494;27.470;2022-08-19T13:11:08;101147.41;;;35.18;100.00
12801;BME280;6464;42.494;27.470;2022-08-19T13:13:36;101101.31;;;35.14;100.00
12801;BME280;6464;42.494;27.470;2022-08-19T13:16:08;101132.28;;;34.83;100.00
12801;BME280;6464;42.494;27.470;2022-08-19T13:18:37;101141.66;;;35.90;100.00
12801;BME280;6464;42.494;27.470;2022-08-19T13:21:05;101149.47;;;36.01;100.00
12801;BME280;6464;42.494;27.470;2022-08-19T13:23:33;101141.69;;;35.82;100.00
12801;BME280;6464;42.494;27.470;2022-08-19T13:26:03;101108.44;;;35.31;100.00
12801;BME280;6464;42.494;27.470;2022-08-19T13:28:31;101121.22;;;35.16;100.00
12801;BME280;6464;42.494;27.470;2022-08-19T13:31:16;101139.69;;;35.76;100.00
12801;BME280;6464;42.494;27.470;2022-08-19T13:33:57;101138.31;;;35.49;100.00
12801;BME280;6464;42.494;27.470;2022-08-19T13:36:24;101121.63;;;34.88;100.00
12801;BME280;6464;42.494;27.470;2022-08-19T13:38:51;101119.19;;;34.54;100.00
12801;BME280;6464;42.494;27.470;2022-08-19T13:41:18;101138.91;;;35.90;100.00
12801;BME280;6464;42.494;27.470;2022-08-19T13:43:45;101148.00;;;35.91;100.00
12801;BME280;6464;42.494;27.470;2022-08-19T13:46:13;101154.72;;;35.88;100.00
12801;BME280;6464;42.494;27.470;2022-08-19T13:48:42;101088.91;;;35.57;100.00
12801;BME280;6464;42.494;27.470;2022-08-19T13:51:09;101139.47;;;36.09;100.00
12801;BME280;6464;42.494;27.470;2022-08-19T13:53:36;101167.53;;;36.71;100.00
12801;BME280;6464;42.494;27.470;2022-08-19T13:56:05;101156.84;;;36.39;100.00
12801;BME280;6464;42.494;27.470;2022-08-19T13:58:32;101108.97;;;35.81;100.00
12801;BME280;6464;42.494;27.470;2022-08-19T14:00:59;101088.63;;;35.44;100.00
12801;BME280;6464;42.494;27.470;2022-08-19T14:03:27;101153.72;;;35.81;100.00
12801;BME280;6464;42.494;27.470;2022-08-19T14:05:55;101131.38;;;36.30;100.00
12801;BME280;6464;42.494;27.470;2022-08-19T14:08:22;101154.09;;;36.24;100.00
12801;BME280;6464;42.494;27.470;2022-08-19T14:10:49;101165.38;;;36.67;100.00
12801;BME280;6464;42.494;27.470;2022-08-19T14:13:17;101137.97;;;35.52;100.00
12801;BME280;6464;42.494;27.470;2022-08-19T14:15:45;101138.28;;;35.26;100.00
12801;BME280;6464;42.494;27.470;2022-08-19T14:18:13;101101.28;;;35.22;100.00
12801;BME280;6464;42.494;27.470;2022-08-19T14:20:40;101130.72;;;34.81;100.00
12801;BME280;6464;42.494;27.470;2022-08-19T14:23:09;101090.28;;;35.30;100.00
12801;BME280;6464;42.494;27.470;2022-08-19T14:25:37;101135.00;;;35.31;100.00
12801;BME280;6464;42.494;27.470;2022-08-19T14:28:04;101115.31;;;35.27;100.00
12801;BME280;6464;42.494;27.470;2022-08-19T14:30:35;101122.69;;;35.26;100.00
12801;BME280;6464;42.494;27.470;2022-08-19T14:33:04;101098.84;;;34.96;100.00
12801;BME280;6464;42.494;27.470;2022-08-19T14:35:33;101102.91;;;35.08;100.00
12801;BME280;6464;42.494;27.470;2022-08-19T14:38:00;101124.66;;;34.62;100.00
12801;BME280;6464;42.494;27.470;2022-08-19T14:40:29;101118.47;;;34.60;100.00
12801;BME280;6464;42.494;27.470;2022-08-19T14:42:58;101134.09;;;35.07;100.00
12801;BME280;6464;42.494;27.470;2022-08-19T14:45:30;101117.97;;;34.40;100.00
12801;BME280;6464;42.494;27.470;2022-08-19T14:47:57;101118.50;;;35.08;100.00
12801;BME280;6464;42.494;27.470;2022-08-19T14:50:25;101116.44;;;34.54;100.00
12801;BME280;6464;42.494;27.470;2022-08-19T14:52:59;101068.56;;;34.25;100.00
12801;BME280;6464;42.494;27.470;2022-08-19T14:55:26;101118.97;;;34.72;100.00
12801;BME280;6464;42.494;27.470;2022-08-19T14:57:55;101110.13;;;34.13;100.00
12801;BME280;6464;42.494;27.470;2022-08-19T15:00:22;101122.19;;;34.75;100.00
12801;BME280;6464;42.494;27.470;2022-08-19T15:02:49;101105.53;;;34.05;100.00
12801;BME280;6464;42.494;27.470;2022-08-19T15:05:17;101117.31;;;34.38;100.00
12801;BME280;6464;42.494;27.470;2022-08-19T15:07:44;101100.75;;;34.23;100.00
12801;BME280;6464;42.494;27.470;2022-08-19T15:10:12;101113.56;;;34.15;100.00
12801;BME280;6464;42.494;27.470;2022-08-19T15:12:40;101097.81;;;33.84;100.00
12801;BME280;6464;42.494;27.470;2022-08-19T15:15:11;101097.50;;;33.95;100.00
12801;BME280;6464;42.494;27.470;2022-08-19T15:17:39;101087.22;;;33.81;100.00
12801;BME280;6464;42.494;27.470;2022-08-19T15:20:08;101110.09;;;33.56;100.00
12801;BME280;6464;42.494;27.470;2022-08-19T15:22:35;101102.47;;;33.25;100.00
12801;BME280;6464;42.494;27.470;2022-08-19T15:25:02;101104.53;;;33.23;100.00
12801;BME280;6464;42.494;27.470;2022-08-19T15:27:30;101098.00;;;33.16;100.00
12801;BME280;6464;42.494;27.470;2022-08-19T15:29:57;101095.72;;;32.61;100.00
12801;BME280;6464;42.494;27.470;2022-08-19T15:32:25;101084.19;;;31.97;100.00
12801;BME280;6464;42.494;27.470;2022-08-19T15:34:53;101051.06;;;31.74;100.00
12801;BME280;6464;42.494;27.470;2022-08-19T15:37:20;101084.09;;;31.71;100.00
12801;BME280;6464;42.494;27.470;2022-08-19T15:39:48;101096.34;;;32.03;100.00
12801;BME280;6464;42.494;27.470;2022-08-19T15:42:15;101056.91;;;31.61;100.00
12801;BME280;6464;42.494;27.470;2022-08-19T15:44:42;101088.69;;;31.35;100.00
12801;BME280;6464;42.494;27.470;2022-08-19T15:47:09;101015.59;;;31.03;100.00
12801;BME280;6464;42.494;27.470;2022-08-19T15:49:38;101072.50;;;31.33;100.00
12801;BME280;6464;42.494;27.470;2022-08-19T15:52:06;101074.56;;;30.66;100.00
12801;BME280;6464;42.494;27.470;2022-08-19T15:54:33;101073.44;;;30.03;100.00
12801;BME280;6464;42.494;27.470;2022-08-19T15:57:00;101073.28;;;30.14;100.00
12801;BME280;6464;42.494;27.470;2022-08-19T15:59:44;101049.13;;;29.62;100.00
12801;BME280;6464;42.494;27.470;2022-08-19T16:02:29;101073.59;;;29.72;100.00
12801;BME280;6464;42.494;27.470;2022-08-19T16:05:17;101075.44;;;29.52;100.00
12801;BME280;6464;42.494;27.470;2022-08-19T16:08:02;101046.97;;;29.27;100.00
12801;BME280;6464;42.494;27.470;2022-08-19T16:10:30;101074.28;;;29.35;100.00
12801;BME280;6464;42.494;27.470;2022-08-19T16:12:57;101075.16;;;29.45;100.00
12801;BME280;6464;42.494;27.470;2022-08-19T16:15:24;101025.63;;;29.03;100.00
12801;BME280;6464;42.494;27.470;2022-08-19T16:17:52;101050.78;;;29.15;100.00
12801;BME280;6464;42.494;27.470;2022-08-19T16:20:21;100984.94;;;28.63;100.00
12801;BME280;6464;42.494;27.470;2022-08-19T16:22:49;101053.34;;;28.97;100.00
12801;BME280;6464;42.494;27.470;2022-08-19T16:25:17;101059.00;;;28.94;100.00
12801;BME280;6464;42.494;27.470;2022-08-19T16:27:44;101042.97;;;28.81;100.00
12801;BME280;6464;42.494;27.470;2022-08-19T16:30:11;101008.03;;;28.57;100.00
12801;BME280;6464;42.494;27.470;2022-08-19T16:32:42;101049.56;;;28.88;100.00
12801;BME280;6464;42.494;27.470;2022-08-19T16:35:09;101006.44;;;28.45;100.00
12801;BME280;6464;42.494;27.470;2022-08-19T16:37:38;100933.53;;;27.90;100.00
12801;BME280;6464;42.494;27.470;2022-08-19T16:40:06;101037.69;;;28.39;100.00
12801;BME280;6464;42.494;27.470;2022-08-19T16:42:34;100987.56;;;28.13;100.00
12801;BME280;6464;42.494;27.470;2022-08-19T16:45:03;101072.31;;;28.57;100.00
12801;BME280;6464;42.494;27.470;2022-08-19T16:47:31;101073.56;;;28.53;100.00
12801;BME280;6464;42.494;27.470;2022-08-19T16:49:58;101061.41;;;28.47;100.00
12801;BME280;6464;42.494;27.470;2022-08-19T16:52:25;101063.09;;;28.38;100.00
12801;BME280;6464;42.494;27.470;2022-08-19T16:54:54;101047.00;;;28.26;100.00
12801;BME280;6464;42.494;27.470;2022-08-19T16:57:21;101069.00;;;28.32;100.00
12801;BME280;6464;42.494;27.470;2022-08-19T16:59:49;101066.22;;;28.34;100.00
12801;BME280;6464;42.494;27.470;2022-08-19T17:02:18;101072.66;;;28.22;100.00
12801;BME280;6464;42.494;27.470;2022-08-19T17:04:46;101082.47;;;28.13;100.00
12801;BME280;6464;42.494;27.470;2022-08-19T17:07:14;101071.22;;;27.97;100.00
12801;BME280;6464;42.494;27.470;2022-08-19T17:09:42;101075.56;;;28.09;100.00